Southampton, New Jersey
Current Conditions -  °F | °C
As of 12:13 PM on Monday 22 Dec 2014 (Local Time) from KVAY Reporting Station
Overcast Overcast  
Wind Chill:   Ceiling: 2000
Heat Index:   Visibility: 10mi
Dew Point:   Wind: 5mph
Humidity: 71%   Direction: 30°NNE
Pressure: 30.26"   Gusts: NA
Location:  39.7955°N, 74.6301°W
Report Text: KVAY 221713Z AUTO 03004KT 10SM BKN020 OVC110 06/01 A3026 RMK AO2 T00610011
Loading
Personal Weather Stations






























Interactive Weather Map New forecast layout! Learn more

10-Day Weather Forecast

Advertisements
Track Severe Weather on mobile